PWSweather.com
Personal Weather Stations
Station Observations
KVAGLENALL
West Henrico, Glen Allen, VA 23060-6503

West HenricoGlen Allen, VA 23060-6503

Lat: 37.6554, Lon: -77.5693

Elevation: 273

Station Type: Davis Vantage Pro II

Latest ConditionsUpdated 11:45:15 AM EDT Thursday, Jun 21, 2018
Currently Today's Max Today's Min Today's Average
Temperature 87.7°F30.9°C 87.7°F30.9°C 69.2°F20.7°C 74.6°F23.7°C
Dew Point 77.2°F25.1°C 78.3°F25.7°C 68.7°F20.4°C 71.9°F22.2°C
Winds 3.0 mph WNW4.8 kmh WNW 4.0 mph -6.4 kmh - - 1.2 mph 1.9 kmh
Wind Gusts 9.1 mph14.6 kmh 9.1 mph14.6 kmh - -
Humidity 71% 99% 69% 92%
Pressure 29.78 in1008.5 mb 29.81 in1009.5 mb 29.74 in1007.1 mb -
Hour Temp Dew Point Humidity Winds Wind Gusts Pressure Precip Precip Rate Daily Precip Total
11:45 AM 87.7°F30.9°C 77.2°F25.1°C 71% 3.0 mph WNW4.8 kmh WNW 9.1 mph14.6 kmh 29.78 in1008.5 mb 0.00 in0.0 mm 0.00 in0.0 mm 0.01 in0.3 mm
11:30 AM 87.6°F30.9°C 76.2°F24.6°C 69% 1.0 mph N1.6 kmh N 8.1 mph13.0 kmh 29.78 in1008.5 mb 0.00 in0.0 mm 0.00 in0.0 mm 0.01 in0.3 mm
11:15 AM 87.5°F30.8°C 78.2°F25.7°C 74% 4.0 mph NW6.4 kmh NW 5.1 mph8.2 kmh 29.78 in1008.5 mb 0.00 in0.0 mm 0.00 in0.0 mm 0.01 in0.3 mm
11:00 AM 87.0°F30.6°C 76.9°F24.9°C 72% 1.0 mph N1.6 kmh N 5.1 mph8.2 kmh 29.78 in1008.5 mb 0.00 in0.0 mm 0.00 in0.0 mm 0.01 in0.3 mm
10:45 AM 86.7°F30.4°C 76.2°F24.6°C 71% 2.0 mph NNW3.2 kmh NNW 2.0 mph3.2 kmh 29.77 in1008.1 mb 0.00 in0.0 mm 0.00 in0.0 mm 0.01 in0.3 mm
10:30 AM 86.4°F30.2°C 78.0°F25.6°C 76% 2.0 mph SW3.2 kmh SW 5.1 mph8.2 kmh 29.77 in1008.1 mb 0.00 in0.0 mm 0.00 in0.0 mm 0.01 in0.3 mm
10:15 AM 85.9°F29.9°C 78.3°F25.7°C 78% 1.0 mph S1.6 kmh S 3.0 mph4.8 kmh 29.78 in1008.5 mb 0.00 in0.0 mm 0.00 in0.0 mm 0.01 in0.3 mm
10:00 AM 84.6°F29.2°C 77.4°F25.2°C 79% Calm Calm 5.1 mph8.2 kmh 29.77 in1008.1 mb 0.00 in0.0 mm 0.00 in0.0 mm 0.01 in0.3 mm
09:45 AM 83.9°F28.8°C 78.2°F25.7°C 83% 2.0 mph N3.2 kmh N 6.1 mph9.8 kmh 29.77 in1008.1 mb 0.00 in0.0 mm 0.00 in0.0 mm 0.01 in0.3 mm
09:30 AM 82.7°F28.2°C 77.0°F25.0°C 83% 1.0 mph WSW1.6 kmh WSW 5.1 mph8.2 kmh 29.77 in1008.1 mb 0.00 in0.0 mm 0.00 in0.0 mm 0.01 in0.3 mm
09:15 AM 81.6°F27.6°C 76.3°F24.6°C 84% 1.0 mph SW1.6 kmh SW 5.1 mph8.2 kmh 29.77 in1008.1 mb 0.00 in0.0 mm 0.00 in0.0 mm 0.01 in0.3 mm
09:00 AM 79.8°F26.6°C 75.6°F24.2°C 87% 2.0 mph WSW3.2 kmh WSW 5.1 mph8.2 kmh 29.77 in1008.1 mb 0.00 in0.0 mm 0.00 in0.0 mm 0.01 in0.3 mm
08:45 AM 78.1°F25.6°C 75.3°F24.1°C 91% 2.0 mph WSW3.2 kmh WSW 5.1 mph8.2 kmh 29.77 in1008.1 mb 0.00 in0.0 mm 0.00 in0.0 mm 0.01 in0.3 mm
08:30 AM 76.0°F24.4°C 74.1°F23.4°C 94% 2.0 mph SW3.2 kmh SW 4.0 mph6.4 kmh 29.78 in1008.5 mb 0.00 in0.0 mm 0.00 in0.0 mm 0.01 in0.3 mm
08:15 AM 74.5°F23.6°C 73.3°F22.9°C 96% 2.0 mph SW3.2 kmh SW 5.1 mph8.2 kmh 29.77 in1008.1 mb 0.00 in0.0 mm 0.00 in0.0 mm 0.01 in0.3 mm
08:00 AM 73.8°F23.2°C 72.9°F22.7°C 97% 1.0 mph SSW1.6 kmh SSW 4.0 mph6.4 kmh 29.77 in1008.1 mb 0.00 in0.0 mm 0.00 in0.0 mm 0.01 in0.3 mm
07:45 AM 73.1°F22.8°C 72.2°F22.3°C 97% 3.0 mph SW4.8 kmh SW 3.0 mph4.8 kmh 29.77 in1008.1 mb 0.00 in0.0 mm 0.00 in0.0 mm 0.01 in0.3 mm
07:30 AM 72.4°F22.4°C 71.8°F22.1°C 98% 3.0 mph WSW4.8 kmh WSW 4.0 mph6.4 kmh 29.77 in1008.1 mb 0.00 in0.0 mm 0.00 in0.0 mm 0.01 in0.3 mm
07:15 AM 71.5°F21.9°C 71.2°F21.8°C 99% 2.0 mph SW3.2 kmh SW 3.0 mph4.8 kmh 29.77 in1008.1 mb 0.00 in0.0 mm 0.00 in0.0 mm 0.01 in0.3 mm
07:00 AM 71.0°F21.7°C 70.7°F21.5°C 99% 3.0 mph SW4.8 kmh SW 4.0 mph6.4 kmh 29.76 in1007.8 mb 0.00 in0.0 mm 0.00 in0.0 mm 0.01 in0.3 mm
06:45 AM 70.1°F21.2°C 69.8°F21.0°C 99% Calm Calm -- 29.76 in1007.8 mb 0.00 in0.0 mm 0.00 in0.0 mm 0.01 in0.3 mm
06:30 AM 69.6°F20.9°C 69.0°F20.6°C 98% Calm Calm -- 29.76 in1007.8 mb 0.00 in0.0 mm 0.00 in0.0 mm 0.01 in0.3 mm
06:15 AM 69.5°F20.8°C 68.9°F20.5°C 98% Calm Calm -- 29.76 in1007.8 mb 0.00 in0.0 mm 0.00 in0.0 mm 0.01 in0.3 mm
06:00 AM 69.4°F20.8°C 68.8°F20.4°C 98% Calm Calm 1.0 mph1.6 kmh 29.75 in1007.5 mb 0.00 in0.0 mm 0.00 in0.0 mm 0.01 in0.3 mm
05:45 AM 69.2°F20.7°C 68.7°F20.4°C 98% 2.0 mph WSW3.2 kmh WSW 2.0 mph3.2 kmh 29.75 in1007.5 mb 0.00 in0.0 mm 0.00 in0.0 mm 0.01 in0.3 mm
05:30 AM 69.6°F20.9°C 68.7°F20.4°C 97% Calm Calm -- 29.74 in1007.1 mb 0.00 in0.0 mm 0.00 in0.0 mm 0.01 in0.3 mm
05:15 AM 69.6°F20.9°C 68.7°F20.4°C 97% Calm Calm -- 29.74 in1007.1 mb 0.00 in0.0 mm 0.00 in0.0 mm 0.01 in0.3 mm
05:00 AM 69.9°F21.1°C 69.3°F20.7°C 98% Calm Calm -- 29.75 in1007.5 mb 0.00 in0.0 mm 0.00 in0.0 mm 0.01 in0.3 mm
04:45 AM 70.0°F21.1°C 69.4°F20.8°C 98% Calm Calm -- 29.75 in1007.5 mb 0.00 in0.0 mm 0.00 in0.0 mm 0.01 in0.3 mm
04:30 AM 70.1°F21.2°C 69.2°F20.7°C 97% Calm Calm 1.0 mph1.6 kmh 29.74 in1007.1 mb 0.00 in0.0 mm 0.00 in0.0 mm 0.01 in0.3 mm
04:15 AM 70.1°F21.2°C 69.2°F20.7°C 97% 1.0 mph WSW1.6 kmh WSW 3.0 mph4.8 kmh 29.74 in1007.1 mb 0.00 in0.0 mm 0.00 in0.0 mm 0.01 in0.3 mm
04:00 AM 70.2°F21.2°C 69.3°F20.7°C 97% Calm Calm -- 29.74 in1007.1 mb 0.00 in0.0 mm 0.00 in0.0 mm 0.01 in0.3 mm
03:45 AM 70.3°F21.3°C 69.4°F20.8°C 97% Calm Calm 1.0 mph1.6 kmh 29.75 in1007.5 mb 0.01 in0.3 mm 0.00 in0.0 mm 0.01 in0.3 mm
03:30 AM 70.5°F21.4°C 69.6°F20.9°C 97% Calm Calm -- 29.75 in1007.5 mb 0.01 in0.3 mm 0.00 in0.0 mm 0.01 in0.3 mm
03:15 AM 70.6°F21.4°C 69.7°F20.9°C 97% Calm Calm 2.0 mph3.2 kmh 29.75 in1007.5 mb 0.01 in0.3 mm 0.00 in0.0 mm 0.01 in0.3 mm
03:00 AM 70.7°F21.5°C 69.8°F21.0°C 97% 3.0 mph SSW4.8 kmh SSW 4.0 mph6.4 kmh 29.77 in1008.1 mb 0.01 in0.3 mm 0.01 in0.3 mm 0.01 in0.3 mm
02:45 AM 70.7°F21.5°C 69.8°F21.0°C 97% 1.0 mph SSW1.6 kmh SSW 1.0 mph1.6 kmh 29.77 in1008.1 mb 0.00 in0.0 mm 0.00 in0.0 mm 0.00 in0.0 mm
02:30 AM 70.7°F21.5°C 69.8°F21.0°C 97% 3.0 mph SSW4.8 kmh SSW 5.1 mph8.2 kmh 29.78 in1008.5 mb 0.00 in0.0 mm 0.00 in0.0 mm 0.00 in0.0 mm
02:15 AM 70.5°F21.4°C 69.6°F20.9°C 97% Calm Calm 3.0 mph4.8 kmh 29.79 in1008.8 mb 0.00 in0.0 mm 0.00 in0.0 mm 0.00 in0.0 mm
02:00 AM 70.6°F21.4°C 69.7°F20.9°C 97% 1.0 mph W1.6 kmh W 2.0 mph3.2 kmh 29.79 in1008.8 mb 0.00 in0.0 mm 0.00 in0.0 mm 0.00 in0.0 mm
01:45 AM 70.6°F21.4°C 69.7°F20.9°C 97% Calm Calm 3.0 mph4.8 kmh 29.80 in1009.1 mb 0.00 in0.0 mm 0.00 in0.0 mm 0.00 in0.0 mm
01:30 AM 70.7°F21.5°C 69.8°F21.0°C 97% 1.0 mph SSE1.6 kmh SSE 3.0 mph4.8 kmh 29.81 in1009.5 mb 0.00 in0.0 mm 0.00 in0.0 mm 0.00 in0.0 mm
01:15 AM 70.6°F21.4°C 69.7°F20.9°C 97% 1.0 mph WSW1.6 kmh WSW 3.0 mph4.8 kmh 29.80 in1009.1 mb 0.00 in0.0 mm 0.00 in0.0 mm 0.00 in0.0 mm
01:00 AM 70.8°F21.6°C 69.6°F20.9°C 96% Calm Calm -- 29.80 in1009.1 mb 0.00 in0.0 mm 0.00 in0.0 mm 0.00 in0.0 mm
12:45 AM 70.8°F21.6°C 69.6°F20.9°C 96% 2.0 mph SW3.2 kmh SW 5.1 mph8.2 kmh 29.80 in1009.1 mb 0.00 in0.0 mm 0.00 in0.0 mm 0.00 in0.0 mm
12:30 AM 71.0°F21.7°C 69.8°F21.0°C 96% 4.0 mph SW6.4 kmh SW 6.1 mph9.8 kmh 29.81 in1009.5 mb 0.00 in0.0 mm 0.00 in0.0 mm 0.00 in0.0 mm
12:15 AM 71.1°F21.7°C 69.9°F21.1°C 96% 1.0 mph SSW1.6 kmh SSW 2.0 mph3.2 kmh 29.80 in1009.1 mb 0.00 in0.0 mm 0.00 in0.0 mm 0.00 in0.0 mm
12:00 AM 71.1°F21.7°C 69.9°F21.1°C 96% Calm Calm -- 29.81 in1009.5 mb 0.00 in0.0 mm 0.00 in0.0 mm 0.00 in0.0 mm